createdAt,value
2022-12-29T00:03:08.515Z,101708.38
2022-12-29T00:08:12.800Z,101721.50
2022-12-29T00:13:33.611Z,101734.59
2022-12-29T00:18:35.855Z,101740.34
2022-12-29T00:23:57.796Z,101730.91
2022-12-29T00:29:18.398Z,101742.59
2022-12-29T00:34:38.989Z,101743.84
2022-12-29T00:40:03.150Z,101700.81
2022-12-29T00:45:05.913Z,101714.88
2022-12-29T00:50:08.464Z,101750.19
2022-12-29T00:55:10.629Z,101748.78
2022-12-29T01:06:37.870Z,101744.41
2022-12-29T01:11:41.646Z,101708.53
2022-12-29T01:16:43.895Z,101718.38
2022-12-29T01:21:47.312Z,101740.50
2022-12-29T01:26:50.246Z,101724.72
2022-12-29T01:31:52.641Z,101691.66
2022-12-29T01:36:54.880Z,101711.78
2022-12-29T01:41:57.007Z,101703.06
2022-12-29T01:46:59.196Z,101685.31
2022-12-29T01:52:06.680Z,101708.97
2022-12-29T01:57:15.006Z,101671.53
2022-12-29T02:02:17.867Z,101667.88
2022-12-29T02:07:23.419Z,101695.44
2022-12-29T02:12:28.500Z,101663.66
2022-12-29T02:17:33.958Z,101697.97
2022-12-29T02:22:47.881Z,101699.66
2022-12-29T02:28:05.853Z,101701.19
2022-12-29T02:33:23.536Z,101703.56
2022-12-29T02:38:47.312Z,101700.19
2022-12-29T02:44:10.284Z,101695.25
2022-12-29T02:49:17.641Z,101702.56
2022-12-29T02:54:40.147Z,101698.47
2022-12-29T02:59:45.150Z,101692.16
2022-12-29T03:05:19.791Z,101678.34
2022-12-29T03:10:30.902Z,101676.94
2022-12-29T03:16:05.680Z,101655.53
2022-12-29T03:21:17.837Z,101690.84
2022-12-29T03:26:22.212Z,101672.53
2022-12-29T03:31:25.894Z,101692.97
2022-12-29T03:36:52.135Z,101665.19
2022-12-29T03:42:03.318Z,101684.47
2022-12-29T03:47:06.962Z,101650.81
2022-12-29T03:52:12.275Z,101693.13
2022-12-29T03:57:14.469Z,101701.88
2022-12-29T04:02:16.698Z,101714.63
2022-12-29T04:07:20.628Z,101691.47
2022-12-29T04:12:22.872Z,101682.69
2022-12-29T04:17:24.987Z,101684.03
2022-12-29T04:22:27.168Z,101718.09
2022-12-29T04:27:29.343Z,101680.44
2022-12-29T04:32:31.512Z,101730.13
2022-12-29T04:37:35.249Z,101714.16
2022-12-29T04:42:37.580Z,101749.97
2022-12-29T04:47:39.806Z,101752.38
2022-12-29T04:52:41.975Z,101748.19
2022-12-29T04:57:44.205Z,101767.88
2022-12-29T05:02:46.870Z,101749.16
2022-12-29T05:07:49.172Z,101765.63
2022-12-29T05:12:54.281Z,101772.97
2022-12-29T05:17:56.694Z,101766.97
2022-12-29T05:22:59.932Z,101785.09
2022-12-29T05:28:02.071Z,101775.50
2022-12-29T05:33:04.449Z,101770.88
2022-12-29T05:38:06.608Z,101782.16
2022-12-29T05:43:10.038Z,101785.06
2022-12-29T05:48:12.147Z,101779.84
2022-12-29T05:53:14.354Z,101778.06
2022-12-29T05:58:19.611Z,101786.06
2022-12-29T06:03:21.927Z,101769.59
2022-12-29T06:08:24.186Z,101775.78
2022-12-29T06:13:26.396Z,101780.78
2022-12-29T06:18:28.769Z,101814.75
2022-12-29T06:23:33.461Z,101820.31
2022-12-29T06:28:35.724Z,101786.19
2022-12-29T06:33:38.975Z,101805.63
2022-12-29T06:38:43.943Z,101775.72
2022-12-29T06:43:46.177Z,101816.06
2022-12-29T06:48:48.529Z,101799.94
2022-12-29T06:53:50.692Z,101817.47
2022-12-29T06:58:52.865Z,101819.22
2022-12-29T07:04:03.889Z,101836.03
2022-12-29T07:09:06.119Z,101846.97
2022-12-29T07:14:08.383Z,101826.00
2022-12-29T07:19:10.710Z,101832.72
2022-12-29T07:24:16.565Z,101842.06
2022-12-29T07:29:25.323Z,101833.63
2022-12-29T07:34:28.765Z,101840.72
2022-12-29T07:39:30.892Z,101849.22
2022-12-29T07:44:33.073Z,101832.75
2022-12-29T07:49:35.563Z,101831.56
2022-12-29T07:54:38.807Z,101847.50
2022-12-29T07:59:41.439Z,101849.91
2022-12-29T08:04:43.657Z,101856.84
2022-12-29T08:09:45.800Z,101859.53
2022-12-29T08:14:48.014Z,101861.38
2022-12-29T08:19:50.289Z,101881.09
2022-12-29T08:24:52.898Z,101864.22
2022-12-29T08:29:56.589Z,101850.03
2022-12-29T08:34:58.816Z,101859.75
2022-12-29T08:40:05.034Z,101856.66
2022-12-29T08:45:08.337Z,101857.03
2022-12-29T08:50:10.656Z,101858.81
2022-12-29T08:55:15.862Z,101851.94
2022-12-29T09:00:18.311Z,101877.88
2022-12-29T09:05:20.616Z,101869.41
2022-12-29T09:10:22.836Z,101847.00
2022-12-29T09:15:25.233Z,101838.91
2022-12-29T09:20:27.423Z,101859.09
2022-12-29T09:25:30.452Z,101852.84
2022-12-29T09:30:32.599Z,101826.88
2022-12-29T09:35:34.749Z,101816.41
2022-12-29T09:40:37.305Z,101827.22
2022-12-29T09:45:47.286Z,101821.56
2022-12-29T09:50:51.670Z,101822.25
2022-12-29T09:55:59.485Z,101813.66
2022-12-29T10:01:15.947Z,101786.97
2022-12-29T10:06:33.106Z,101797.81
2022-12-29T10:11:54.248Z,101788.59
2022-12-29T10:17:17.050Z,101775.69
2022-12-29T10:22:21.905Z,101778.03
2022-12-29T10:27:25.393Z,101766.75
2022-12-29T10:32:41.902Z,101733.09
2022-12-29T10:37:54.307Z,101723.44
2022-12-29T10:48:31.809Z,101742.38
2022-12-29T11:10:36.245Z,101726.38
2022-12-29T11:15:57.348Z,101725.56
2022-12-29T11:21:05.512Z,101728.94
2022-12-29T11:26:22.250Z,101712.25
2022-12-29T11:31:24.722Z,101689.84
2022-12-29T11:36:27.441Z,101698.13
2022-12-29T11:41:32.513Z,101675.59
2022-12-29T11:46:39.786Z,101680.59
2022-12-29T11:51:49.067Z,101672.78
2022-12-29T11:56:53.121Z,101659.50
2022-12-29T12:01:56.959Z,101661.09
2022-12-29T12:07:11.927Z,101654.88
2022-12-29T12:12:32.943Z,101617.69
2022-12-29T12:17:44.799Z,101647.66
2022-12-29T12:23:00.418Z,101607.03
2022-12-29T12:28:07.046Z,101621.13
2022-12-29T12:33:27.717Z,101615.34
2022-12-29T12:38:51.656Z,101620.59
2022-12-29T12:44:15.547Z,101617.84
2022-12-29T12:49:55.695Z,101619.97
2022-12-29T12:55:36.944Z,101627.59
2022-12-29T13:00:50.921Z,101621.63
2022-12-29T13:06:02.775Z,101623.84
2022-12-29T13:11:23.323Z,101622.19
2022-12-29T13:16:55.002Z,101617.31
2022-12-29T13:22:14.968Z,101605.97
2022-12-29T13:27:20.549Z,101627.22
2022-12-29T13:32:35.097Z,101614.06
2022-12-29T13:37:48.639Z,101594.00
2022-12-29T13:42:52.097Z,101613.88
2022-12-29T13:48:01.625Z,101610.31
2022-12-29T13:53:06.344Z,101621.19
2022-12-29T13:58:40.215Z,101624.50
2022-12-29T14:03:49.550Z,101622.78
2022-12-29T14:08:55.346Z,101623.28
2022-12-29T14:13:58.245Z,101614.09
2022-12-29T14:19:17.069Z,101612.91
2022-12-29T14:24:44.097Z,101625.13
2022-12-29T14:29:48.698Z,101618.94
2022-12-29T14:34:54.293Z,101620.69
2022-12-29T14:40:30.576Z,101628.22
2022-12-29T14:45:38.829Z,101588.34
2022-12-29T14:50:44.998Z,101600.75
2022-12-29T14:55:57.414Z,101619.97
2022-12-29T15:01:01.193Z,101603.75
2022-12-29T15:06:10.319Z,101596.25
2022-12-29T15:11:19.247Z,101607.03
2022-12-29T15:16:27.772Z,101616.22
2022-12-29T15:21:37.777Z,101600.84
2022-12-29T15:26:47.950Z,101627.84
2022-12-29T15:31:50.191Z,101624.00
2022-12-29T15:36:52.781Z,101596.91
2022-12-29T15:42:27.985Z,101631.63
2022-12-29T15:47:31.762Z,101618.38
2022-12-29T15:52:35.393Z,101631.22
2022-12-29T15:57:44.570Z,101636.47
2022-12-29T16:02:47.528Z,101624.56
2022-12-29T16:08:01.363Z,101627.44
2022-12-29T16:13:27.964Z,101635.88
2022-12-29T16:18:35.552Z,101629.16
2022-12-29T16:23:38.411Z,101637.09
2022-12-29T16:28:45.709Z,101640.94
2022-12-29T16:33:52.766Z,101614.53
2022-12-29T16:39:25.399Z,101648.63
2022-12-29T16:44:30.433Z,101639.53
2022-12-29T16:49:38.021Z,101643.22
2022-12-29T16:54:42.325Z,101633.75
2022-12-29T16:59:46.483Z,101663.13
2022-12-29T17:04:50.951Z,101638.16
2022-12-29T17:09:56.436Z,101668.94
2022-12-29T17:15:07.054Z,101668.59
2022-12-29T17:20:27.208Z,101654.38
2022-12-29T17:25:38.354Z,101672.63
2022-12-29T17:30:41.351Z,101637.03
2022-12-29T17:35:43.773Z,101668.81
2022-12-29T17:40:46.236Z,101691.16
2022-12-29T17:45:54.166Z,101694.06
2022-12-29T17:50:58.531Z,101686.72
2022-12-29T17:56:00.743Z,101691.34
2022-12-29T18:01:03.912Z,101696.25
2022-12-29T18:06:08.752Z,101698.75
2022-12-29T18:11:23.495Z,101689.03
2022-12-29T18:16:25.761Z,101659.09
2022-12-29T18:21:27.935Z,101687.22
2022-12-29T18:26:32.162Z,101653.72
2022-12-29T18:31:36.991Z,101679.09
2022-12-29T18:36:39.394Z,101698.94
2022-12-29T18:41:41.578Z,101686.34
2022-12-29T18:46:44.055Z,101668.66
2022-12-29T18:51:46.304Z,101688.13
2022-12-29T18:56:48.490Z,101704.13
2022-12-29T19:01:51.040Z,101696.03
2022-12-29T19:06:53.384Z,101713.38
2022-12-29T19:11:55.595Z,101699.19
2022-12-29T19:16:57.776Z,101704.09
2022-12-29T19:22:00.021Z,101692.44
2022-12-29T19:27:02.291Z,101720.03
2022-12-29T19:32:06.107Z,101718.09
2022-12-29T19:37:08.327Z,101711.78
2022-12-29T19:42:10.519Z,101704.59
2022-12-29T19:47:20.705Z,101702.91
2022-12-29T19:52:23.929Z,101694.63
2022-12-29T19:57:27.108Z,101702.34
2022-12-29T20:02:32.716Z,101710.56
2022-12-29T20:07:35.556Z,101708.75
2022-12-29T20:12:38.814Z,101689.25
2022-12-29T20:23:03.387Z,101700.03
2022-12-29T20:28:05.667Z,101722.63
2022-12-29T20:33:09.438Z,101709.41
2022-12-29T20:38:11.725Z,101715.75
2022-12-29T20:43:16.553Z,101730.84
2022-12-29T20:48:18.837Z,101693.72
2022-12-29T20:53:21.188Z,101720.34
2022-12-29T20:58:24.676Z,101672.16
2022-12-29T21:03:27.432Z,101701.31
2022-12-29T21:08:33.196Z,101712.00
2022-12-29T21:13:35.861Z,101725.25
2022-12-29T21:18:38.186Z,101700.50
2022-12-29T21:23:40.893Z,101735.41
2022-12-29T21:28:44.687Z,101732.06
2022-12-29T21:33:50.723Z,101739.09
2022-12-29T21:38:53.628Z,101753.13
2022-12-29T21:44:14.482Z,101727.69
2022-12-29T21:49:16.916Z,101720.94
2022-12-29T21:54:41.581Z,101744.69
2022-12-29T22:00:02.016Z,101719.34
2022-12-29T22:05:24.044Z,101753.00
2022-12-29T22:10:44.916Z,101725.28
2022-12-29T22:15:47.180Z,101711.38
2022-12-29T22:20:49.384Z,101730.78
2022-12-29T22:25:53.112Z,101693.06
2022-12-29T22:30:58.456Z,101729.78
2022-12-29T22:36:00.658Z,101700.94
2022-12-29T22:41:03.106Z,101718.81
2022-12-29T22:46:08.058Z,101730.91
2022-12-29T22:51:10.276Z,101712.75
2022-12-29T22:56:14.087Z,101723.19
2022-12-29T23:01:18.625Z,101723.59
2022-12-29T23:06:20.913Z,101695.47
2022-12-29T23:11:23.939Z,101716.16
2022-12-29T23:16:26.748Z,101714.75
2022-12-29T23:21:28.995Z,101694.63
2022-12-29T23:26:37.166Z,101697.69
2022-12-29T23:31:40.058Z,101687.59
2022-12-29T23:36:43.940Z,101680.53
2022-12-29T23:41:46.409Z,101682.19
2022-12-29T23:46:48.747Z,101700.31
2022-12-29T23:51:51.003Z,101677.84
2022-12-29T23:56:53.222Z,101700.78
